Eemshaven Heliport

EHHE · Groningen, 荷兰

使用的METAR站距离机场28 km。
罗盘
风向 的 风向 050° 直升机
风: 8 kt, 3 beaufort
0 ft 5.000 10.000 15.000 20.000
Cloud Cloud Cloud Cloud Cloud Cloud
BKN 19.000
METAR EDWE 151820Z AUTO 05008KT 9999 BKN190/// 19/15 Q1010

METAR Eemshaven Heliport - EHHE

Eemshaven Heliport是,荷兰中的直升机场。 该机场位于纬度53,46181和经度6,81437。 本场的ICAO机场代码为EHHE。 机场在Bremen FIR中。

该航空气象观测是针对Emden Airport在2024年7月15日 20:20, 当地时间进行的。

机场观察

风向为050°,速度为8 kt。

可见度为10 km 或者更多。

有碎云在19.000 ft的高度。 破损或更高的上限为19.000 ft。

温度和风寒是19 °C。 露点为15 °C,相对湿度为78%。 海平面上的气压为1010 hPa (QNH)。

白天

今天,太阳从05:23升起,在21:53降落。 这适用于Eemshaven Heliport,世界夏令时可能有所不同。 当地时间与世界标准时间之间的时差为+2 小时。 夏令时目前正在进行中。

公司介绍

我们没有关于这个机场的公司信息。

体会

到Vliegles.nl去找飞行课程,跳伞和其他飞行体验。 浏览页面,了解Eemshaven Heliport附近所有可用的活动。 你也可以使用搜索功能来寻找你所在地附近的特定飞行课程、跳伞或其他飞行体验。

乌云

19.000 ft BKN 碎云

温度 & 天气

温度 19 °C
露点 15 °C
相对湿度 78%
Kp-index 0 (0-9)

白天

日出
05:22
中午
13:37
日落
21:51 (54m)

小工具

你想在你的网站上有一个关于Eemshaven Heliport的当前航空天气(METAR)的小部件吗?

显示HTML代码
报告变更